sensor_id;sensor_type;location;lat;lon;timestamp;P1;durP1;ratioP1;P2;durP2;ratioP2
36597;SDS011;22607;49.550;11.940;2023-11-18T00:00:43;8.88;;;3.30;;
36597;SDS011;22607;49.550;11.940;2023-11-18T00:03:10;7.60;;;2.85;;
36597;SDS011;22607;49.550;11.940;2023-11-18T00:05:37;8.18;;;2.83;;
36597;SDS011;22607;49.550;11.940;2023-11-18T00:08:05;7.32;;;2.83;;
36597;SDS011;22607;49.550;11.940;2023-11-18T00:10:33;12.65;;;2.83;;
36597;SDS011;22607;49.550;11.940;2023-11-18T00:12:59;8.73;;;2.92;;
36597;SDS011;22607;49.550;11.940;2023-11-18T00:15:28;7.47;;;2.90;;
36597;SDS011;22607;49.550;11.940;2023-11-18T00:17:54;8.88;;;3.00;;
36597;SDS011;22607;49.550;11.940;2023-11-18T00:20:21;9.50;;;3.17;;
36597;SDS011;22607;49.550;11.940;2023-11-18T00:22:50;8.43;;;2.67;;
36597;SDS011;22607;49.550;11.940;2023-11-18T00:25:17;7.97;;;2.85;;
36597;SDS011;22607;49.550;11.940;2023-11-18T00:27:44;7.38;;;2.47;;
36597;SDS011;22607;49.550;11.940;2023-11-18T00:30:11;6.85;;;2.15;;
36597;SDS011;22607;49.550;11.940;2023-11-18T00:32:38;7.47;;;2.85;;
36597;SDS011;22607;49.550;11.940;2023-11-18T00:35:05;10.48;;;3.67;;
36597;SDS011;22607;49.550;11.940;2023-11-18T00:37:32;7.82;;;2.53;;
36597;SDS011;22607;49.550;11.940;2023-11-18T00:39:59;9.70;;;2.88;;
36597;SDS011;22607;49.550;11.940;2023-11-18T00:42:27;8.25;;;2.55;;
36597;SDS011;22607;49.550;11.940;2023-11-18T00:44:53;7.22;;;2.50;;
36597;SDS011;22607;49.550;11.940;2023-11-18T00:47:21;8.05;;;2.40;;
36597;SDS011;22607;49.550;11.940;2023-11-18T00:49:49;6.85;;;2.25;;
36597;SDS011;22607;49.550;11.940;2023-11-18T00:52:18;8.68;;;2.85;;
36597;SDS011;22607;49.550;11.940;2023-11-18T00:54:45;7.05;;;2.38;;
36597;SDS011;22607;49.550;11.940;2023-11-18T00:57:12;9.40;;;2.95;;
36597;SDS011;22607;49.550;11.940;2023-11-18T00:59:41;7.47;;;2.67;;
36597;SDS011;22607;49.550;11.940;2023-11-18T01:02:08;8.73;;;2.78;;
36597;SDS011;22607;49.550;11.940;2023-11-18T01:04:35;7.82;;;2.90;;
36597;SDS011;22607;49.550;11.940;2023-11-18T01:07:01;8.10;;;2.35;;
36597;SDS011;22607;49.550;11.940;2023-11-18T01:09:29;7.53;;;2.50;;
36597;SDS011;22607;49.550;11.940;2023-11-18T01:11:55;7.75;;;2.75;;
36597;SDS011;22607;49.550;11.940;2023-11-18T01:14:34;7.40;;;2.72;;
36597;SDS011;22607;49.550;11.940;2023-11-18T01:17:02;6.25;;;2.13;;
36597;SDS011;22607;49.550;11.940;2023-11-18T01:19:29;8.15;;;2.67;;
36597;SDS011;22607;49.550;11.940;2023-11-18T01:21:57;9.65;;;2.60;;
36597;SDS011;22607;49.550;11.940;2023-11-18T01:24:23;7.32;;;2.58;;
36597;SDS011;22607;49.550;11.940;2023-11-18T01:26:50;8.48;;;2.35;;
36597;SDS011;22607;49.550;11.940;2023-11-18T01:29:16;8.48;;;2.90;;
36597;SDS011;22607;49.550;11.940;2023-11-18T01:31:43;8.45;;;3.08;;
36597;SDS011;22607;49.550;11.940;2023-11-18T01:34:18;7.97;;;2.42;;
36597;SDS011;22607;49.550;11.940;2023-11-18T01:36:48;9.20;;;2.97;;
36597;SDS011;22607;49.550;11.940;2023-11-18T01:39:19;8.85;;;3.15;;
36597;SDS011;22607;49.550;11.940;2023-11-18T01:41:45;10.25;;;3.10;;
36597;SDS011;22607;49.550;11.940;2023-11-18T01:44:12;8.27;;;3.75;;
36597;SDS011;22607;49.550;11.940;2023-11-18T01:46:42;7.60;;;2.67;;
36597;SDS011;22607;49.550;11.940;2023-11-18T01:49:12;7.63;;;2.83;;
36597;SDS011;22607;49.550;11.940;2023-11-18T01:51:43;8.73;;;2.90;;
36597;SDS011;22607;49.550;11.940;2023-11-18T01:54:12;8.35;;;2.80;;
36597;SDS011;22607;49.550;11.940;2023-11-18T01:56:46;6.90;;;2.75;;
36597;SDS011;22607;49.550;11.940;2023-11-18T01:59:14;7.53;;;2.55;;
36597;SDS011;22607;49.550;11.940;2023-11-18T02:01:50;8.77;;;2.70;;
36597;SDS011;22607;49.550;11.940;2023-11-18T02:04:20;7.10;;;2.33;;
36597;SDS011;22607;49.550;11.940;2023-11-18T02:06:48;7.47;;;2.60;;
36597;SDS011;22607;49.550;11.940;2023-11-18T02:09:16;7.78;;;2.92;;
36597;SDS011;22607;49.550;11.940;2023-11-18T02:11:47;7.20;;;2.70;;
36597;SDS011;22607;49.550;11.940;2023-11-18T02:14:17;9.25;;;2.83;;
36597;SDS011;22607;49.550;11.940;2023-11-18T02:16:46;8.32;;;2.70;;
36597;SDS011;22607;49.550;11.940;2023-11-18T02:19:20;8.20;;;3.38;;
36597;SDS011;22607;49.550;11.940;2023-11-18T02:21:51;6.47;;;2.22;;
36597;SDS011;22607;49.550;11.940;2023-11-18T02:24:30;6.78;;;2.30;;
36597;SDS011;22607;49.550;11.940;2023-11-18T02:27:05;9.50;;;2.40;;
36597;SDS011;22607;49.550;11.940;2023-11-18T02:29:42;8.43;;;3.10;;
36597;SDS011;22607;49.550;11.940;2023-11-18T02:32:18;9.90;;;2.97;;
36597;SDS011;22607;49.550;11.940;2023-11-18T02:35:09;8.43;;;3.10;;
36597;SDS011;22607;49.550;11.940;2023-11-18T02:37:40;8.35;;;2.78;;
36597;SDS011;22607;49.550;11.940;2023-11-18T02:42:43;8.73;;;3.00;;
36597;SDS011;22607;49.550;11.940;2023-11-18T02:45:13;7.38;;;2.42;;
36597;SDS011;22607;49.550;11.940;2023-11-18T02:47:43;7.00;;;2.25;;
36597;SDS011;22607;49.550;11.940;2023-11-18T02:50:11;6.97;;;2.22;;
36597;SDS011;22607;49.550;11.940;2023-11-18T02:52:40;7.40;;;2.38;;
36597;SDS011;22607;49.550;11.940;2023-11-18T02:55:07;7.30;;;2.58;;
36597;SDS011;22607;49.550;11.940;2023-11-18T02:57:35;8.43;;;2.40;;
36597;SDS011;22607;49.550;11.940;2023-11-18T03:00:03;7.63;;;2.50;;
36597;SDS011;22607;49.550;11.940;2023-11-18T03:02:31;5.95;;;2.15;;
36597;SDS011;22607;49.550;11.940;2023-11-18T03:04:58;7.47;;;2.50;;
36597;SDS011;22607;49.550;11.940;2023-11-18T03:07:25;7.70;;;2.70;;
36597;SDS011;22607;49.550;11.940;2023-11-18T03:09:53;8.20;;;2.80;;
36597;SDS011;22607;49.550;11.940;2023-11-18T03:12:23;8.85;;;3.47;;
36597;SDS011;22607;49.550;11.940;2023-11-18T03:14:54;7.53;;;2.53;;
36597;SDS011;22607;49.550;11.940;2023-11-18T03:17:21;8.35;;;3.10;;
36597;SDS011;22607;49.550;11.940;2023-11-18T03:19:48;10.65;;;3.17;;
36597;SDS011;22607;49.550;11.940;2023-11-18T03:22:17;8.80;;;3.00;;
36597;SDS011;22607;49.550;11.940;2023-11-18T03:24:43;8.05;;;3.05;;
36597;SDS011;22607;49.550;11.940;2023-11-18T03:27:12;8.32;;;2.92;;
36597;SDS011;22607;49.550;11.940;2023-11-18T03:29:38;6.43;;;2.25;;
36597;SDS011;22607;49.550;11.940;2023-11-18T03:32:06;7.03;;;2.25;;
36597;SDS011;22607;49.550;11.940;2023-11-18T03:34:33;7.25;;;2.40;;
36597;SDS011;22607;49.550;11.940;2023-11-18T03:37:00;7.13;;;2.50;;
36597;SDS011;22607;49.550;11.940;2023-11-18T03:39:27;7.00;;;2.35;;
36597;SDS011;22607;49.550;11.940;2023-11-18T03:41:54;6.65;;;2.20;;
36597;SDS011;22607;49.550;11.940;2023-11-18T03:44:23;7.10;;;2.10;;
36597;SDS011;22607;49.550;11.940;2023-11-18T03:46:52;8.57;;;2.78;;
36597;SDS011;22607;49.550;11.940;2023-11-18T03:49:19;9.50;;;3.13;;
36597;SDS011;22607;49.550;11.940;2023-11-18T03:51:47;7.32;;;2.28;;
36597;SDS011;22607;49.550;11.940;2023-11-18T03:54:13;8.20;;;2.65;;
36597;SDS011;22607;49.550;11.940;2023-11-18T03:56:40;9.80;;;2.65;;
36597;SDS011;22607;49.550;11.940;2023-11-18T03:59:07;9.25;;;2.67;;
36597;SDS011;22607;49.550;11.940;2023-11-18T04:01:33;7.25;;;2.40;;
36597;SDS011;22607;49.550;11.940;2023-11-18T04:04:02;6.80;;;2.25;;
36597;SDS011;22607;49.550;11.940;2023-11-18T04:06:30;7.45;;;2.17;;
36597;SDS011;22607;49.550;11.940;2023-11-18T04:08:57;7.68;;;2.58;;
36597;SDS011;22607;49.550;11.940;2023-11-18T04:11:24;6.88;;;2.38;;
36597;SDS011;22607;49.550;11.940;2023-11-18T04:13:51;11.15;;;2.85;;
36597;SDS011;22607;49.550;11.940;2023-11-18T04:16:18;9.73;;;3.60;;
36597;SDS011;22607;49.550;11.940;2023-11-18T04:18:45;8.80;;;2.83;;
36597;SDS011;22607;49.550;11.940;2023-11-18T04:21:12;9.25;;;3.45;;
36597;SDS011;22607;49.550;11.940;2023-11-18T04:23:40;9.82;;;2.95;;
36597;SDS011;22607;49.550;11.940;2023-11-18T04:26:08;16.58;;;6.25;;
36597;SDS011;22607;49.550;11.940;2023-11-18T04:28:35;16.42;;;6.15;;
36597;SDS011;22607;49.550;11.940;2023-11-18T04:31:03;17.55;;;6.82;;
36597;SDS011;22607;49.550;11.940;2023-11-18T04:33:31;8.40;;;2.78;;
36597;SDS011;22607;49.550;11.940;2023-11-18T04:36:04;8.90;;;3.45;;
36597;SDS011;22607;49.550;11.940;2023-11-18T04:38:31;8.77;;;2.97;;
36597;SDS011;22607;49.550;11.940;2023-11-18T04:40:58;7.70;;;3.00;;
36597;SDS011;22607;49.550;11.940;2023-11-18T04:43:25;7.65;;;2.88;;
36597;SDS011;22607;49.550;11.940;2023-11-18T04:46:07;8.30;;;2.83;;
36597;SDS011;22607;49.550;11.940;2023-11-18T04:48:34;8.27;;;2.58;;
36597;SDS011;22607;49.550;11.940;2023-11-18T04:51:06;9.90;;;3.13;;
36597;SDS011;22607;49.550;11.940;2023-11-18T04:53:33;8.10;;;2.85;;
36597;SDS011;22607;49.550;11.940;2023-11-18T04:56:00;8.57;;;3.38;;
36597;SDS011;22607;49.550;11.940;2023-11-18T04:58:27;7.03;;;2.28;;
36597;SDS011;22607;49.550;11.940;2023-11-18T05:00:53;8.20;;;2.40;;
36597;SDS011;22607;49.550;11.940;2023-11-18T05:03:20;7.15;;;2.35;;
36597;SDS011;22607;49.550;11.940;2023-11-18T05:05:48;8.35;;;2.78;;
36597;SDS011;22607;49.550;11.940;2023-11-18T05:08:17;8.35;;;2.65;;
36597;SDS011;22607;49.550;11.940;2023-11-18T05:10:49;8.13;;;2.42;;
36597;SDS011;22607;49.550;11.940;2023-11-18T05:13:17;7.63;;;2.28;;
36597;SDS011;22607;49.550;11.940;2023-11-18T05:15:46;8.52;;;2.67;;
36597;SDS011;22607;49.550;11.940;2023-11-18T05:18:13;8.27;;;2.30;;
36597;SDS011;22607;49.550;11.940;2023-11-18T05:20:43;7.45;;;2.17;;
36597;SDS011;22607;49.550;11.940;2023-11-18T05:23:10;9.30;;;2.70;;
36597;SDS011;22607;49.550;11.940;2023-11-18T05:25:42;8.73;;;2.95;;
36597;SDS011;22607;49.550;11.940;2023-11-18T05:28:12;7.82;;;2.67;;
36597;SDS011;22607;49.550;11.940;2023-11-18T05:30:40;9.13;;;3.28;;
36597;SDS011;22607;49.550;11.940;2023-11-18T05:33:09;7.05;;;2.35;;
36597;SDS011;22607;49.550;11.940;2023-11-18T05:38:18;8.65;;;2.70;;
36597;SDS011;22607;49.550;11.940;2023-11-18T05:40:48;9.23;;;3.17;;
36597;SDS011;22607;49.550;11.940;2023-11-18T05:43:28;7.50;;;2.60;;
36597;SDS011;22607;49.550;11.940;2023-11-18T05:46:02;7.82;;;3.10;;
36597;SDS011;22607;49.550;11.940;2023-11-18T05:48:50;9.55;;;3.05;;
36597;SDS011;22607;49.550;11.940;2023-11-18T05:51:23;7.88;;;2.78;;
36597;SDS011;22607;49.550;11.940;2023-11-18T05:53:52;7.82;;;2.55;;
36597;SDS011;22607;49.550;11.940;2023-11-18T05:56:19;7.55;;;2.42;;
36597;SDS011;22607;49.550;11.940;2023-11-18T05:58:49;7.82;;;2.90;;
36597;SDS011;22607;49.550;11.940;2023-11-18T06:01:22;8.23;;;2.65;;
36597;SDS011;22607;49.550;11.940;2023-11-18T06:03:50;8.10;;;2.55;;
36597;SDS011;22607;49.550;11.940;2023-11-18T06:06:17;8.63;;;2.67;;
36597;SDS011;22607;49.550;11.940;2023-11-18T06:08:49;7.22;;;2.60;;
36597;SDS011;22607;49.550;11.940;2023-11-18T06:11:16;9.02;;;2.80;;
36597;SDS011;22607;49.550;11.940;2023-11-18T06:13:46;8.57;;;2.78;;
36597;SDS011;22607;49.550;11.940;2023-11-18T06:16:21;11.27;;;3.03;;
36597;SDS011;22607;49.550;11.940;2023-11-18T06:18:49;8.50;;;2.80;;
36597;SDS011;22607;49.550;11.940;2023-11-18T06:21:25;7.55;;;2.30;;
36597;SDS011;22607;49.550;11.940;2023-11-18T06:23:57;7.57;;;2.60;;
36597;SDS011;22607;49.550;11.940;2023-11-18T06:26:25;7.47;;;2.22;;
36597;SDS011;22607;49.550;11.940;2023-11-18T06:28:53;7.43;;;2.28;;
36597;SDS011;22607;49.550;11.940;2023-11-18T06:31:21;8.40;;;2.38;;
36597;SDS011;22607;49.550;11.940;2023-11-18T06:33:47;7.53;;;2.55;;
36597;SDS011;22607;49.550;11.940;2023-11-18T06:38:45;8.15;;;2.40;;
36597;SDS011;22607;49.550;11.940;2023-11-18T06:41:12;9.25;;;2.88;;
36597;SDS011;22607;49.550;11.940;2023-11-18T06:43:42;8.77;;;2.95;;
36597;SDS011;22607;49.550;11.940;2023-11-18T06:46:23;6.18;;;1.85;;
36597;SDS011;22607;49.550;11.940;2023-11-18T06:48:52;7.75;;;2.58;;
36597;SDS011;22607;49.550;11.940;2023-11-18T06:51:26;8.07;;;2.58;;
36597;SDS011;22607;49.550;11.940;2023-11-18T06:53:54;6.25;;;2.00;;
36597;SDS011;22607;49.550;11.940;2023-11-18T06:56:25;7.15;;;2.15;;
36597;SDS011;22607;49.550;11.940;2023-11-18T06:58:52;6.90;;;2.00;;
36597;SDS011;22607;49.550;11.940;2023-11-18T07:01:20;7.00;;;2.25;;
36597;SDS011;22607;49.550;11.940;2023-11-18T07:03:47;6.80;;;2.08;;
36597;SDS011;22607;49.550;11.940;2023-11-18T07:06:18;7.90;;;2.28;;
36597;SDS011;22607;49.550;11.940;2023-11-18T07:08:53;7.85;;;2.10;;
36597;SDS011;22607;49.550;11.940;2023-11-18T07:11:26;5.63;;;1.88;;
36597;SDS011;22607;49.550;11.940;2023-11-18T07:13:54;8.07;;;2.53;;
36597;SDS011;22607;49.550;11.940;2023-11-18T07:16:26;7.72;;;2.35;;
36597;SDS011;22607;49.550;11.940;2023-11-18T07:18:54;6.15;;;2.13;;
36597;SDS011;22607;49.550;11.940;2023-11-18T07:21:23;6.72;;;2.53;;
36597;SDS011;22607;49.550;11.940;2023-11-18T07:23:50;7.60;;;2.88;;
36597;SDS011;22607;49.550;11.940;2023-11-18T07:26:17;7.40;;;2.80;;
36597;SDS011;22607;49.550;11.940;2023-11-18T07:28:44;8.00;;;2.83;;
36597;SDS011;22607;49.550;11.940;2023-11-18T07:31:11;12.82;;;5.63;;
36597;SDS011;22607;49.550;11.940;2023-11-18T07:33:38;11.00;;;5.38;;
36597;SDS011;22607;49.550;11.940;2023-11-18T07:36:09;12.17;;;5.73;;
36597;SDS011;22607;49.550;11.940;2023-11-18T07:38:37;10.90;;;5.55;;
36597;SDS011;22607;49.550;11.940;2023-11-18T07:41:04;10.68;;;5.90;;
36597;SDS011;22607;49.550;11.940;2023-11-18T07:43:30;12.55;;;6.20;;
36597;SDS011;22607;49.550;11.940;2023-11-18T07:45:57;10.50;;;5.63;;
36597;SDS011;22607;49.550;11.940;2023-11-18T07:48:23;11.15;;;6.00;;
36597;SDS011;22607;49.550;11.940;2023-11-18T07:50:50;10.07;;;5.63;;
36597;SDS011;22607;49.550;11.940;2023-11-18T07:53:17;11.05;;;5.70;;
36597;SDS011;22607;49.550;11.940;2023-11-18T07:55:43;12.68;;;5.95;;
36597;SDS011;22607;49.550;11.940;2023-11-18T07:58:11;13.13;;;6.15;;
36597;SDS011;22607;49.550;11.940;2023-11-18T08:00:43;14.02;;;7.07;;
36597;SDS011;22607;49.550;11.940;2023-11-18T08:03:13;12.73;;;6.53;;
36597;SDS011;22607;49.550;11.940;2023-11-18T08:05:46;11.68;;;6.57;;
36597;SDS011;22607;49.550;11.940;2023-11-18T08:08:15;14.20;;;8.18;;
36597;SDS011;22607;49.550;11.940;2023-11-18T08:10:44;12.18;;;6.88;;
36597;SDS011;22607;49.550;11.940;2023-11-18T08:13:11;14.93;;;8.38;;
36597;SDS011;22607;49.550;11.940;2023-11-18T08:15:41;17.38;;;9.20;;
36597;SDS011;22607;49.550;11.940;2023-11-18T08:18:08;16.92;;;9.10;;
36597;SDS011;22607;49.550;11.940;2023-11-18T08:20:38;17.33;;;9.02;;
36597;SDS011;22607;49.550;11.940;2023-11-18T08:23:06;14.75;;;7.55;;
36597;SDS011;22607;49.550;11.940;2023-11-18T08:25:32;14.85;;;7.68;;
36597;SDS011;22607;49.550;11.940;2023-11-18T08:28:03;14.85;;;7.90;;
36597;SDS011;22607;49.550;11.940;2023-11-18T08:30:31;13.35;;;6.43;;
36597;SDS011;22607;49.550;11.940;2023-11-18T08:33:00;12.75;;;6.13;;
36597;SDS011;22607;49.550;11.940;2023-11-18T08:35:31;10.40;;;5.20;;
36597;SDS011;22607;49.550;11.940;2023-11-18T08:37:58;11.50;;;6.25;;
36597;SDS011;22607;49.550;11.940;2023-11-18T08:40:25;12.68;;;5.20;;
36597;SDS011;22607;49.550;11.940;2023-11-18T08:42:52;9.80;;;4.60;;
36597;SDS011;22607;49.550;11.940;2023-11-18T08:45:27;12.27;;;5.93;;
36597;SDS011;22607;49.550;11.940;2023-11-18T08:47:56;9.57;;;4.72;;
36597;SDS011;22607;49.550;11.940;2023-11-18T08:50:23;10.10;;;5.05;;
36597;SDS011;22607;49.550;11.940;2023-11-18T08:52:52;10.35;;;4.65;;
36597;SDS011;22607;49.550;11.940;2023-11-18T08:55:28;10.75;;;4.82;;
36597;SDS011;22607;49.550;11.940;2023-11-18T08:58:25;15.35;;;7.82;;
36597;SDS011;22607;49.550;11.940;2023-11-18T09:00:56;15.98;;;9.23;;
36597;SDS011;22607;49.550;11.940;2023-11-18T09:03:51;13.07;;;6.30;;
36597;SDS011;22607;49.550;11.940;2023-11-18T09:06:25;14.20;;;7.65;;
36597;SDS011;22607;49.550;11.940;2023-11-18T09:08:53;13.50;;;7.50;;
36597;SDS011;22607;49.550;11.940;2023-11-18T09:13:59;12.18;;;5.68;;
36597;SDS011;22607;49.550;11.940;2023-11-18T09:16:30;11.73;;;5.85;;
36597;SDS011;22607;49.550;11.940;2023-11-18T09:18:59;10.18;;;5.13;;
36597;SDS011;22607;49.550;11.940;2023-11-18T09:21:28;11.02;;;5.65;;
36597;SDS011;22607;49.550;11.940;2023-11-18T09:23:56;11.18;;;5.30;;
36597;SDS011;22607;49.550;11.940;2023-11-18T09:26:23;12.90;;;5.88;;
36597;SDS011;22607;49.550;11.940;2023-11-18T09:28:52;12.25;;;6.63;;
36597;SDS011;22607;49.550;11.940;2023-11-18T09:31:19;20.25;;;10.68;;
36597;SDS011;22607;49.550;11.940;2023-11-18T09:33:48;18.90;;;10.10;;
36597;SDS011;22607;49.550;11.940;2023-11-18T09:36:29;14.30;;;8.05;;
36597;SDS011;22607;49.550;11.940;2023-11-18T09:38:57;13.88;;;7.72;;
36597;SDS011;22607;49.550;11.940;2023-11-18T09:41:23;12.57;;;8.00;;
36597;SDS011;22607;49.550;11.940;2023-11-18T09:43:53;12.75;;;6.47;;
36597;SDS011;22607;49.550;11.940;2023-11-18T09:52:09;12.50;;;7.18;;
36597;SDS011;22607;49.550;11.940;2023-11-18T09:57:17;15.63;;;6.45;;
36597;SDS011;22607;49.550;11.940;2023-11-18T10:02:53;14.68;;;7.95;;
36597;SDS011;22607;49.550;11.940;2023-11-18T10:05:23;13.48;;;6.95;;
36597;SDS011;22607;49.550;11.940;2023-11-18T10:07:54;11.20;;;6.25;;
36597;SDS011;22607;49.550;11.940;2023-11-18T10:10:21;15.23;;;9.25;;
36597;SDS011;22607;49.550;11.940;2023-11-18T10:12:49;15.40;;;10.32;;
36597;SDS011;22607;49.550;11.940;2023-11-18T10:15:24;13.02;;;7.18;;
36597;SDS011;22607;49.550;11.940;2023-11-18T10:17:52;12.65;;;7.28;;
36597;SDS011;22607;49.550;11.940;2023-11-18T10:20:47;12.18;;;6.85;;
36597;SDS011;22607;49.550;11.940;2023-11-18T10:23:18;12.05;;;6.65;;
36597;SDS011;22607;49.550;11.940;2023-11-18T10:25:58;12.07;;;6.82;;
36597;SDS011;22607;49.550;11.940;2023-11-18T10:28:32;12.15;;;6.05;;
36597;SDS011;22607;49.550;11.940;2023-11-18T10:31:00;16.27;;;7.95;;
36597;SDS011;22607;49.550;11.940;2023-11-18T10:33:34;15.20;;;7.35;;
36597;SDS011;22607;49.550;11.940;2023-11-18T10:36:05;13.38;;;7.03;;
36597;SDS011;22607;49.550;11.940;2023-11-18T10:38:39;12.63;;;7.40;;
36597;SDS011;22607;49.550;11.940;2023-11-18T10:41:18;15.63;;;8.23;;
36597;SDS011;22607;49.550;11.940;2023-11-18T10:43:45;13.98;;;7.53;;
36597;SDS011;22607;49.550;11.940;2023-11-18T10:46:16;12.02;;;6.03;;
36597;SDS011;22607;49.550;11.940;2023-11-18T10:48:46;19.23;;;7.22;;
36597;SDS011;22607;49.550;11.940;2023-11-18T10:51:15;11.32;;;5.25;;
36597;SDS011;22607;49.550;11.940;2023-11-18T10:53:53;10.82;;;5.07;;
36597;SDS011;22607;49.550;11.940;2023-11-18T10:56:26;10.93;;;5.68;;
36597;SDS011;22607;49.550;11.940;2023-11-18T10:59:05;11.77;;;5.30;;
36597;SDS011;22607;49.550;11.940;2023-11-18T11:01:33;8.25;;;3.30;;
36597;SDS011;22607;49.550;11.940;2023-11-18T11:04:05;7.32;;;2.80;;
36597;SDS011;22607;49.550;11.940;2023-11-18T11:06:32;7.25;;;1.95;;
36597;SDS011;22607;49.550;11.940;2023-11-18T11:09:00;6.05;;;1.90;;
36597;SDS011;22607;49.550;11.940;2023-11-18T11:11:30;6.22;;;1.92;;
36597;SDS011;22607;49.550;11.940;2023-11-18T11:14:05;7.00;;;2.03;;
36597;SDS011;22607;49.550;11.940;2023-11-18T11:16:40;8.23;;;2.33;;
36597;SDS011;22607;49.550;11.940;2023-11-18T11:19:26;6.85;;;2.00;;
36597;SDS011;22607;49.550;11.940;2023-11-18T11:22:04;6.47;;;2.05;;
36597;SDS011;22607;49.550;11.940;2023-11-18T11:27:28;6.88;;;2.30;;
36597;SDS011;22607;49.550;11.940;2023-11-18T11:32:45;6.97;;;2.10;;
36597;SDS011;22607;49.550;11.940;2023-11-18T11:35:31;7.03;;;2.50;;
36597;SDS011;22607;49.550;11.940;2023-11-18T11:38:05;6.60;;;2.20;;
36597;SDS011;22607;49.550;11.940;2023-11-18T11:40:37;6.70;;;2.50;;
36597;SDS011;22607;49.550;11.940;2023-11-18T11:43:05;5.78;;;2.17;;
36597;SDS011;22607;49.550;11.940;2023-11-18T11:45:44;7.13;;;2.22;;
36597;SDS011;22607;49.550;11.940;2023-11-18T11:48:13;6.22;;;2.50;;
36597;SDS011;22607;49.550;11.940;2023-11-18T11:53:44;7.72;;;2.20;;
36597;SDS011;22607;49.550;11.940;2023-11-18T11:56:18;6.15;;;2.17;;
36597;SDS011;22607;49.550;11.940;2023-11-18T12:01:32;6.60;;;2.05;;
36597;SDS011;22607;49.550;11.940;2023-11-18T12:04:16;6.60;;;2.38;;
36597;SDS011;22607;49.550;11.940;2023-11-18T12:06:54;6.55;;;2.08;;
36597;SDS011;22607;49.550;11.940;2023-11-18T12:09:37;6.93;;;2.50;;
36597;SDS011;22607;49.550;11.940;2023-11-18T12:12:05;8.52;;;3.05;;
36597;SDS011;22607;49.550;11.940;2023-11-18T12:14:51;7.13;;;2.60;;
36597;SDS011;22607;49.550;11.940;2023-11-18T12:23:25;8.07;;;2.70;;
36597;SDS011;22607;49.550;11.940;2023-11-18T12:25:53;8.45;;;3.63;;
36597;SDS011;22607;49.550;11.940;2023-11-18T12:28:24;8.32;;;3.38;;
36597;SDS011;22607;49.550;11.940;2023-11-18T12:30:54;9.00;;;3.83;;
36597;SDS011;22607;49.550;11.940;2023-11-18T12:33:24;10.05;;;3.80;;
36597;SDS011;22607;49.550;11.940;2023-11-18T12:41:37;10.00;;;3.55;;
36597;SDS011;22607;49.550;11.940;2023-11-18T12:47:02;8.27;;;3.45;;
36597;SDS011;22607;49.550;11.940;2023-11-18T12:49:45;9.93;;;4.15;;
36597;SDS011;22607;49.550;11.940;2023-11-18T12:52:16;10.02;;;4.57;;
36597;SDS011;22607;49.550;11.940;2023-11-18T12:54:45;9.48;;;4.57;;
36597;SDS011;22607;49.550;11.940;2023-11-18T12:57:20;8.32;;;3.72;;
36597;SDS011;22607;49.550;11.940;2023-11-18T12:59:49;10.52;;;4.45;;
36597;SDS011;22607;49.550;11.940;2023-11-18T13:02:16;8.80;;;3.72;;
36597;SDS011;22607;49.550;11.940;2023-11-18T13:04:47;9.85;;;4.45;;
36597;SDS011;22607;49.550;11.940;2023-11-18T13:07:16;10.35;;;4.80;;
36597;SDS011;22607;49.550;11.940;2023-11-18T13:09:51;11.65;;;5.43;;
36597;SDS011;22607;49.550;11.940;2023-11-18T13:12:21;10.45;;;4.63;;
36597;SDS011;22607;49.550;11.940;2023-11-18T13:14:50;11.48;;;5.05;;
36597;SDS011;22607;49.550;11.940;2023-11-18T13:17:17;10.60;;;5.38;;
36597;SDS011;22607;49.550;11.940;2023-11-18T13:19:44;11.35;;;4.82;;
36597;SDS011;22607;49.550;11.940;2023-11-18T13:22:12;11.45;;;5.13;;
36597;SDS011;22607;49.550;11.940;2023-11-18T13:24:43;10.00;;;5.13;;
36597;SDS011;22607;49.550;11.940;2023-11-18T13:27:15;9.40;;;4.35;;
36597;SDS011;22607;49.550;11.940;2023-11-18T13:29:43;10.45;;;5.15;;
36597;SDS011;22607;49.550;11.940;2023-11-18T13:32:11;10.30;;;4.72;;
36597;SDS011;22607;49.550;11.940;2023-11-18T13:34:39;10.15;;;5.18;;
36597;SDS011;22607;49.550;11.940;2023-11-18T13:37:09;9.82;;;4.45;;
36597;SDS011;22607;49.550;11.940;2023-11-18T13:39:43;11.13;;;5.18;;
36597;SDS011;22607;49.550;11.940;2023-11-18T13:48:05;11.52;;;4.57;;
36597;SDS011;22607;49.550;11.940;2023-11-18T13:50:35;10.73;;;5.45;;
36597;SDS011;22607;49.550;11.940;2023-11-18T13:53:04;10.25;;;5.32;;
36597;SDS011;22607;49.550;11.940;2023-11-18T13:55:32;10.10;;;4.68;;
36597;SDS011;22607;49.550;11.940;2023-11-18T13:57:59;10.07;;;4.32;;
36597;SDS011;22607;49.550;11.940;2023-11-18T14:00:26;10.00;;;5.03;;
36597;SDS011;22607;49.550;11.940;2023-11-18T14:02:57;9.32;;;4.65;;
36597;SDS011;22607;49.550;11.940;2023-11-18T14:05:26;10.90;;;5.13;;
36597;SDS011;22607;49.550;11.940;2023-11-18T14:07:53;11.93;;;5.90;;
36597;SDS011;22607;49.550;11.940;2023-11-18T14:10:25;10.13;;;5.32;;
36597;SDS011;22607;49.550;11.940;2023-11-18T14:12:58;10.82;;;5.05;;
36597;SDS011;22607;49.550;11.940;2023-11-18T14:15:34;13.10;;;5.80;;
36597;SDS011;22607;49.550;11.940;2023-11-18T14:20:49;10.63;;;5.75;;
36597;SDS011;22607;49.550;11.940;2023-11-18T14:23:18;12.05;;;5.55;;
36597;SDS011;22607;49.550;11.940;2023-11-18T14:25:45;11.48;;;5.55;;
36597;SDS011;22607;49.550;11.940;2023-11-18T14:28:12;10.75;;;5.60;;
36597;SDS011;22607;49.550;11.940;2023-11-18T14:30:39;11.35;;;5.75;;
36597;SDS011;22607;49.550;11.940;2023-11-18T14:33:12;11.57;;;6.00;;
36597;SDS011;22607;49.550;11.940;2023-11-18T14:35:39;10.38;;;4.90;;
36597;SDS011;22607;49.550;11.940;2023-11-18T14:38:09;11.07;;;5.53;;
36597;SDS011;22607;49.550;11.940;2023-11-18T14:40:39;11.00;;;6.07;;
36597;SDS011;22607;49.550;11.940;2023-11-18T14:43:07;11.32;;;5.20;;
36597;SDS011;22607;49.550;11.940;2023-11-18T14:45:35;10.45;;;5.43;;
36597;SDS011;22607;49.550;11.940;2023-11-18T14:48:03;10.40;;;5.20;;
36597;SDS011;22607;49.550;11.940;2023-11-18T14:50:33;9.32;;;4.00;;
36597;SDS011;22607;49.550;11.940;2023-11-18T14:53:01;10.00;;;4.97;;
36597;SDS011;22607;49.550;11.940;2023-11-18T14:55:29;9.95;;;4.35;;
36597;SDS011;22607;49.550;11.940;2023-11-18T14:58:02;10.43;;;4.03;;
36597;SDS011;22607;49.550;11.940;2023-11-18T15:00:32;9.93;;;3.75;;
36597;SDS011;22607;49.550;11.940;2023-11-18T15:02:59;11.50;;;5.55;;
36597;SDS011;22607;49.550;11.940;2023-11-18T15:05:27;10.02;;;4.95;;
36597;SDS011;22607;49.550;11.940;2023-11-18T15:07:55;12.27;;;5.65;;
36597;SDS011;22607;49.550;11.940;2023-11-18T15:10:25;12.52;;;6.38;;
36597;SDS011;22607;49.550;11.940;2023-11-18T15:12:58;11.73;;;6.10;;
36597;SDS011;22607;49.550;11.940;2023-11-18T15:15:31;11.73;;;6.40;;
36597;SDS011;22607;49.550;11.940;2023-11-18T15:18:08;11.83;;;5.73;;
36597;SDS011;22607;49.550;11.940;2023-11-18T15:20:40;12.77;;;5.93;;
36597;SDS011;22607;49.550;11.940;2023-11-18T15:23:13;11.18;;;5.80;;
36597;SDS011;22607;49.550;11.940;2023-11-18T15:25:42;11.93;;;6.03;;
36597;SDS011;22607;49.550;11.940;2023-11-18T15:28:08;11.40;;;5.85;;
36597;SDS011;22607;49.550;11.940;2023-11-18T15:30:36;14.13;;;6.28;;
36597;SDS011;22607;49.550;11.940;2023-11-18T15:33:03;11.32;;;5.43;;
36597;SDS011;22607;49.550;11.940;2023-11-18T15:35:30;11.27;;;5.47;;
36597;SDS011;22607;49.550;11.940;2023-11-18T15:37:57;12.57;;;7.07;;
36597;SDS011;22607;49.550;11.940;2023-11-18T15:40:24;14.02;;;7.45;;